sensor_id;sensor_type;location;lat;lon;timestamp;P1;durP1;ratioP1;P2;durP2;ratioP2
16179;SDS011;8196;49.428;10.906;2022-10-31T00:00:56;7.80;;;6.80;;
16179;SDS011;8196;49.428;10.906;2022-10-31T00:03:24;8.38;;;6.70;;
16179;SDS011;8196;49.428;10.906;2022-10-31T00:05:52;8.25;;;6.35;;
16179;SDS011;8196;49.428;10.906;2022-10-31T00:08:20;7.43;;;6.63;;
16179;SDS011;8196;49.428;10.906;2022-10-31T00:10:47;6.53;;;5.93;;
16179;SDS011;8196;49.428;10.906;2022-10-31T00:13:14;8.18;;;6.47;;
16179;SDS011;8196;49.428;10.906;2022-10-31T00:15:41;8.37;;;6.50;;
16179;SDS011;8196;49.428;10.906;2022-10-31T00:18:09;6.87;;;6.13;;
16179;SDS011;8196;49.428;10.906;2022-10-31T00:20:37;7.63;;;6.05;;
16179;SDS011;8196;49.428;10.906;2022-10-31T00:23:04;6.80;;;6.10;;
16179;SDS011;8196;49.428;10.906;2022-10-31T00:25:33;7.78;;;5.80;;
16179;SDS011;8196;49.428;10.906;2022-10-31T00:28:02;5.90;;;5.30;;
16179;SDS011;8196;49.428;10.906;2022-10-31T00:30:30;5.95;;;5.22;;
16179;SDS011;8196;49.428;10.906;2022-10-31T00:32:57;7.90;;;6.43;;
16179;SDS011;8196;49.428;10.906;2022-10-31T00:35:25;11.45;;;7.32;;
16179;SDS011;8196;49.428;10.906;2022-10-31T00:37:52;8.80;;;7.22;;
16179;SDS011;8196;49.428;10.906;2022-10-31T00:40:19;10.55;;;7.00;;
16179;SDS011;8196;49.428;10.906;2022-10-31T00:42:46;11.18;;;7.35;;
16179;SDS011;8196;49.428;10.906;2022-10-31T00:47:42;9.88;;;6.90;;
16179;SDS011;8196;49.428;10.906;2022-10-31T00:50:09;11.27;;;7.93;;
16179;SDS011;8196;49.428;10.906;2022-10-31T00:52:36;10.43;;;7.55;;
16179;SDS011;8196;49.428;10.906;2022-10-31T00:55:02;9.20;;;7.13;;
16179;SDS011;8196;49.428;10.906;2022-10-31T00:57:30;12.13;;;7.00;;
16179;SDS011;8196;49.428;10.906;2022-10-31T00:59:57;8.95;;;7.03;;
16179;SDS011;8196;49.428;10.906;2022-10-31T01:02:24;11.57;;;7.22;;
16179;SDS011;8196;49.428;10.906;2022-10-31T01:04:51;12.63;;;7.80;;
16179;SDS011;8196;49.428;10.906;2022-10-31T01:07:18;12.10;;;7.43;;
16179;SDS011;8196;49.428;10.906;2022-10-31T01:09:45;10.90;;;6.95;;
16179;SDS011;8196;49.428;10.906;2022-10-31T01:12:12;11.05;;;6.85;;
16179;SDS011;8196;49.428;10.906;2022-10-31T01:14:44;11.32;;;6.60;;
16179;SDS011;8196;49.428;10.906;2022-10-31T01:17:11;12.68;;;6.82;;
16179;SDS011;8196;49.428;10.906;2022-10-31T01:19:39;11.25;;;6.65;;
16179;SDS011;8196;49.428;10.906;2022-10-31T01:22:06;8.80;;;6.67;;
16179;SDS011;8196;49.428;10.906;2022-10-31T01:24:33;12.35;;;6.82;;
16179;SDS011;8196;49.428;10.906;2022-10-31T01:27:00;7.32;;;5.60;;
16179;SDS011;8196;49.428;10.906;2022-10-31T01:29:27;8.63;;;6.07;;
16179;SDS011;8196;49.428;10.906;2022-10-31T01:31:54;8.57;;;6.20;;
16179;SDS011;8196;49.428;10.906;2022-10-31T01:34:21;9.98;;;7.15;;
16179;SDS011;8196;49.428;10.906;2022-10-31T01:36:48;13.43;;;7.30;;
16179;SDS011;8196;49.428;10.906;2022-10-31T01:39:17;9.82;;;6.75;;
16179;SDS011;8196;49.428;10.906;2022-10-31T01:41:46;8.10;;;5.95;;
16179;SDS011;8196;49.428;10.906;2022-10-31T01:47:13;9.98;;;6.20;;
16179;SDS011;8196;49.428;10.906;2022-10-31T01:49:30;9.18;;;6.05;;
16179;SDS011;8196;49.428;10.906;2022-10-31T01:52:03;11.48;;;6.93;;
16179;SDS011;8196;49.428;10.906;2022-10-31T01:54:33;9.65;;;6.07;;
16179;SDS011;8196;49.428;10.906;2022-10-31T01:57:02;9.50;;;6.45;;
16179;SDS011;8196;49.428;10.906;2022-10-31T01:59:31;11.90;;;7.45;;
16179;SDS011;8196;49.428;10.906;2022-10-31T02:02:01;16.45;;;7.75;;
16179;SDS011;8196;49.428;10.906;2022-10-31T02:04:28;12.73;;;8.25;;
16179;SDS011;8196;49.428;10.906;2022-10-31T02:07:00;14.20;;;7.65;;
16179;SDS011;8196;49.428;10.906;2022-10-31T02:09:29;10.88;;;7.63;;
16179;SDS011;8196;49.428;10.906;2022-10-31T02:11:58;12.68;;;7.15;;
16179;SDS011;8196;49.428;10.906;2022-10-31T02:14:26;12.77;;;7.38;;
16179;SDS011;8196;49.428;10.906;2022-10-31T02:16:55;9.68;;;7.00;;
16179;SDS011;8196;49.428;10.906;2022-10-31T02:19:26;9.10;;;6.73;;
16179;SDS011;8196;49.428;10.906;2022-10-31T02:21:57;9.57;;;7.07;;
16179;SDS011;8196;49.428;10.906;2022-10-31T02:32:30;9.73;;;7.18;;
16179;SDS011;8196;49.428;10.906;2022-10-31T02:35:07;11.10;;;7.50;;
16179;SDS011;8196;49.428;10.906;2022-10-31T02:43:49;13.15;;;7.90;;
16179;SDS011;8196;49.428;10.906;2022-10-31T02:48:45;9.27;;;7.28;;
16179;SDS011;8196;49.428;10.906;2022-10-31T02:51:13;10.60;;;7.78;;
16179;SDS011;8196;49.428;10.906;2022-10-31T02:53:42;11.02;;;7.45;;
16179;SDS011;8196;49.428;10.906;2022-10-31T03:06:25;11.52;;;7.35;;
16179;SDS011;8196;49.428;10.906;2022-10-31T03:09:00;10.30;;;7.37;;
16179;SDS011;8196;49.428;10.906;2022-10-31T03:11:31;10.10;;;7.15;;
16179;SDS011;8196;49.428;10.906;2022-10-31T03:14:04;9.30;;;7.63;;
16179;SDS011;8196;49.428;10.906;2022-10-31T03:16:37;11.35;;;7.63;;
16179;SDS011;8196;49.428;10.906;2022-10-31T03:19:08;10.30;;;7.57;;
16179;SDS011;8196;49.428;10.906;2022-10-31T03:21:40;8.55;;;7.03;;
16179;SDS011;8196;49.428;10.906;2022-10-31T03:24:09;7.65;;;6.82;;
16179;SDS011;8196;49.428;10.906;2022-10-31T03:26:38;7.65;;;6.03;;
16179;SDS011;8196;49.428;10.906;2022-10-31T03:29:07;8.93;;;5.53;;
16179;SDS011;8196;49.428;10.906;2022-10-31T03:31:36;8.25;;;5.43;;
16179;SDS011;8196;49.428;10.906;2022-10-31T03:34:04;6.75;;;5.32;;
16179;SDS011;8196;49.428;10.906;2022-10-31T03:36:33;6.63;;;5.50;;
16179;SDS011;8196;49.428;10.906;2022-10-31T03:39:01;8.48;;;5.68;;
16179;SDS011;8196;49.428;10.906;2022-10-31T03:41:31;7.03;;;5.65;;
16179;SDS011;8196;49.428;10.906;2022-10-31T03:44:01;6.18;;;5.57;;
16179;SDS011;8196;49.428;10.906;2022-10-31T03:46:30;7.68;;;5.70;;
16179;SDS011;8196;49.428;10.906;2022-10-31T03:48:57;8.40;;;6.07;;
16179;SDS011;8196;49.428;10.906;2022-10-31T03:51:26;7.25;;;5.57;;
16179;SDS011;8196;49.428;10.906;2022-10-31T03:53:56;7.43;;;6.20;;
16179;SDS011;8196;49.428;10.906;2022-10-31T03:56:29;8.73;;;6.07;;
16179;SDS011;8196;49.428;10.906;2022-10-31T03:59:03;9.32;;;6.13;;
16179;SDS011;8196;49.428;10.906;2022-10-31T04:01:32;8.02;;;6.80;;
16179;SDS011;8196;49.428;10.906;2022-10-31T04:04:01;7.88;;;6.60;;
16179;SDS011;8196;49.428;10.906;2022-10-31T04:06:29;10.15;;;7.05;;
16179;SDS011;8196;49.428;10.906;2022-10-31T04:08:57;10.52;;;6.95;;
16179;SDS011;8196;49.428;10.906;2022-10-31T04:11:27;9.00;;;6.70;;
16179;SDS011;8196;49.428;10.906;2022-10-31T04:13:55;9.60;;;7.20;;
16179;SDS011;8196;49.428;10.906;2022-10-31T04:16:22;8.40;;;6.75;;
16179;SDS011;8196;49.428;10.906;2022-10-31T04:18:50;7.45;;;5.85;;
16179;SDS011;8196;49.428;10.906;2022-10-31T04:21:17;7.40;;;6.57;;
16179;SDS011;8196;49.428;10.906;2022-10-31T04:23:44;10.25;;;7.60;;
16179;SDS011;8196;49.428;10.906;2022-10-31T04:26:11;10.23;;;6.72;;
16179;SDS011;8196;49.428;10.906;2022-10-31T04:28:39;7.10;;;6.10;;
16179;SDS011;8196;49.428;10.906;2022-10-31T04:31:06;8.13;;;6.47;;
16179;SDS011;8196;49.428;10.906;2022-10-31T04:33:33;12.07;;;7.07;;
16179;SDS011;8196;49.428;10.906;2022-10-31T04:36:00;13.02;;;6.95;;
16179;SDS011;8196;49.428;10.906;2022-10-31T04:38:27;10.25;;;6.63;;
16179;SDS011;8196;49.428;10.906;2022-10-31T04:40:54;12.93;;;7.05;;
16179;SDS011;8196;49.428;10.906;2022-10-31T04:43:21;10.90;;;7.70;;
16179;SDS011;8196;49.428;10.906;2022-10-31T04:45:48;12.73;;;7.43;;
16179;SDS011;8196;49.428;10.906;2022-10-31T04:48:16;11.63;;;7.72;;
16179;SDS011;8196;49.428;10.906;2022-10-31T04:50:43;9.45;;;7.15;;
16179;SDS011;8196;49.428;10.906;2022-10-31T04:53:10;11.27;;;8.02;;
16179;SDS011;8196;49.428;10.906;2022-10-31T04:55:37;11.65;;;8.20;;
16179;SDS011;8196;49.428;10.906;2022-10-31T04:58:04;9.20;;;7.50;;
16179;SDS011;8196;49.428;10.906;2022-10-31T05:00:31;10.98;;;8.13;;
16179;SDS011;8196;49.428;10.906;2022-10-31T05:02:58;9.95;;;8.02;;
16179;SDS011;8196;49.428;10.906;2022-10-31T05:05:28;15.68;;;8.43;;
16179;SDS011;8196;49.428;10.906;2022-10-31T05:07:55;11.95;;;7.85;;
16179;SDS011;8196;49.428;10.906;2022-10-31T05:10:24;9.65;;;7.50;;
16179;SDS011;8196;49.428;10.906;2022-10-31T05:12:52;10.90;;;7.97;;
16179;SDS011;8196;49.428;10.906;2022-10-31T05:15:20;11.82;;;8.05;;
16179;SDS011;8196;49.428;10.906;2022-10-31T05:17:47;9.93;;;7.70;;
16179;SDS011;8196;49.428;10.906;2022-10-31T05:20:15;11.45;;;7.90;;
16179;SDS011;8196;49.428;10.906;2022-10-31T05:22:43;9.85;;;7.40;;
16179;SDS011;8196;49.428;10.906;2022-10-31T05:25:11;10.65;;;7.90;;
16179;SDS011;8196;49.428;10.906;2022-10-31T05:27:39;11.45;;;7.68;;
16179;SDS011;8196;49.428;10.906;2022-10-31T05:30:07;8.98;;;7.00;;
16179;SDS011;8196;49.428;10.906;2022-10-31T05:32:37;11.73;;;6.77;;
16179;SDS011;8196;49.428;10.906;2022-10-31T05:35:05;11.75;;;7.28;;
16179;SDS011;8196;49.428;10.906;2022-10-31T05:37:34;9.23;;;6.70;;
16179;SDS011;8196;49.428;10.906;2022-10-31T05:40:02;7.25;;;6.55;;
16179;SDS011;8196;49.428;10.906;2022-10-31T05:42:33;7.13;;;6.43;;
16179;SDS011;8196;49.428;10.906;2022-10-31T05:45:00;7.25;;;6.40;;
16179;SDS011;8196;49.428;10.906;2022-10-31T05:47:27;7.38;;;6.47;;
16179;SDS011;8196;49.428;10.906;2022-10-31T05:49:54;6.82;;;6.13;;
16179;SDS011;8196;49.428;10.906;2022-10-31T05:52:22;9.15;;;6.47;;
16179;SDS011;8196;49.428;10.906;2022-10-31T05:54:49;10.15;;;6.47;;
16179;SDS011;8196;49.428;10.906;2022-10-31T05:57:16;10.40;;;6.78;;
16179;SDS011;8196;49.428;10.906;2022-10-31T05:59:43;9.57;;;7.03;;
16179;SDS011;8196;49.428;10.906;2022-10-31T06:02:10;10.85;;;7.30;;
16179;SDS011;8196;49.428;10.906;2022-10-31T06:04:37;7.72;;;6.97;;
16179;SDS011;8196;49.428;10.906;2022-10-31T06:07:04;11.13;;;8.15;;
16179;SDS011;8196;49.428;10.906;2022-10-31T06:09:31;9.77;;;7.53;;
16179;SDS011;8196;49.428;10.906;2022-10-31T06:11:58;10.85;;;8.10;;
16179;SDS011;8196;49.428;10.906;2022-10-31T06:14:26;11.83;;;7.80;;
16179;SDS011;8196;49.428;10.906;2022-10-31T06:16:54;9.52;;;7.47;;
16179;SDS011;8196;49.428;10.906;2022-10-31T06:19:22;10.63;;;7.95;;
16179;SDS011;8196;49.428;10.906;2022-10-31T06:21:49;9.52;;;7.15;;
16179;SDS011;8196;49.428;10.906;2022-10-31T06:24:16;9.27;;;6.93;;
16179;SDS011;8196;49.428;10.906;2022-10-31T06:26:43;9.68;;;6.95;;
16179;SDS011;8196;49.428;10.906;2022-10-31T06:29:10;11.85;;;7.28;;
16179;SDS011;8196;49.428;10.906;2022-10-31T06:31:37;12.32;;;7.82;;
16179;SDS011;8196;49.428;10.906;2022-10-31T06:34:04;8.27;;;7.20;;
16179;SDS011;8196;49.428;10.906;2022-10-31T06:36:31;8.95;;;7.50;;
16179;SDS011;8196;49.428;10.906;2022-10-31T06:38:58;9.68;;;7.75;;
16179;SDS011;8196;49.428;10.906;2022-10-31T06:41:27;11.30;;;7.57;;
16179;SDS011;8196;49.428;10.906;2022-10-31T06:43:54;10.60;;;8.07;;
16179;SDS011;8196;49.428;10.906;2022-10-31T06:46:21;8.52;;;6.90;;
16179;SDS011;8196;49.428;10.906;2022-10-31T06:48:48;12.68;;;8.68;;
16179;SDS011;8196;49.428;10.906;2022-10-31T06:51:15;11.07;;;8.05;;
16179;SDS011;8196;49.428;10.906;2022-10-31T06:53:42;9.70;;;7.65;;
16179;SDS011;8196;49.428;10.906;2022-10-31T06:56:09;9.75;;;7.22;;
16179;SDS011;8196;49.428;10.906;2022-10-31T06:58:36;10.38;;;7.22;;
16179;SDS011;8196;49.428;10.906;2022-10-31T07:01:03;9.30;;;8.30;;
16179;SDS011;8196;49.428;10.906;2022-10-31T07:03:30;9.90;;;8.73;;
16179;SDS011;8196;49.428;10.906;2022-10-31T07:05:57;9.27;;;7.68;;
16179;SDS011;8196;49.428;10.906;2022-10-31T07:08:24;9.52;;;8.20;;
16179;SDS011;8196;49.428;10.906;2022-10-31T07:10:53;9.25;;;7.45;;
16179;SDS011;8196;49.428;10.906;2022-10-31T07:13:21;10.02;;;7.05;;
16179;SDS011;8196;49.428;10.906;2022-10-31T07:15:52;8.88;;;7.35;;
16179;SDS011;8196;49.428;10.906;2022-10-31T07:18:19;9.17;;;6.83;;
16179;SDS011;8196;49.428;10.906;2022-10-31T07:20:47;8.23;;;6.93;;
16179;SDS011;8196;49.428;10.906;2022-10-31T07:23:15;8.48;;;6.70;;
16179;SDS011;8196;49.428;10.906;2022-10-31T07:25:42;7.88;;;6.43;;
16179;SDS011;8196;49.428;10.906;2022-10-31T07:28:09;11.00;;;8.73;;
16179;SDS011;8196;49.428;10.906;2022-10-31T07:30:37;7.43;;;6.72;;
16179;SDS011;8196;49.428;10.906;2022-10-31T07:33:04;6.65;;;6.07;;
16179;SDS011;8196;49.428;10.906;2022-10-31T07:35:31;6.50;;;5.90;;
16179;SDS011;8196;49.428;10.906;2022-10-31T07:38:08;7.03;;;5.80;;
16179;SDS011;8196;49.428;10.906;2022-10-31T07:40:36;6.67;;;6.00;;
16179;SDS011;8196;49.428;10.906;2022-10-31T07:43:03;6.45;;;5.85;;
16179;SDS011;8196;49.428;10.906;2022-10-31T07:45:38;7.03;;;6.32;;
16179;SDS011;8196;49.428;10.906;2022-10-31T07:48:05;7.28;;;6.55;;
16179;SDS011;8196;49.428;10.906;2022-10-31T07:50:32;6.97;;;6.30;;
16179;SDS011;8196;49.428;10.906;2022-10-31T07:53:00;7.10;;;6.30;;
16179;SDS011;8196;49.428;10.906;2022-10-31T07:55:28;8.68;;;6.53;;
16179;SDS011;8196;49.428;10.906;2022-10-31T07:57:56;7.75;;;6.95;;
16179;SDS011;8196;49.428;10.906;2022-10-31T08:00:24;9.43;;;6.82;;
16179;SDS011;8196;49.428;10.906;2022-10-31T08:03:03;7.53;;;6.82;;
16179;SDS011;8196;49.428;10.906;2022-10-31T08:05:30;8.32;;;7.45;;
16179;SDS011;8196;49.428;10.906;2022-10-31T08:07:58;8.23;;;7.35;;
16179;SDS011;8196;49.428;10.906;2022-10-31T08:10:26;8.45;;;7.65;;
16179;SDS011;8196;49.428;10.906;2022-10-31T08:12:55;9.82;;;7.85;;
16179;SDS011;8196;49.428;10.906;2022-10-31T08:15:22;9.57;;;8.43;;
16179;SDS011;8196;49.428;10.906;2022-10-31T08:17:49;9.73;;;7.40;;
16179;SDS011;8196;49.428;10.906;2022-10-31T08:20:17;9.15;;;8.20;;
16179;SDS011;8196;49.428;10.906;2022-10-31T08:22:52;9.57;;;7.45;;
16179;SDS011;8196;49.428;10.906;2022-10-31T08:25:19;9.25;;;7.47;;
16179;SDS011;8196;49.428;10.906;2022-10-31T08:27:51;7.80;;;7.03;;
16179;SDS011;8196;49.428;10.906;2022-10-31T08:30:20;8.35;;;7.05;;
16179;SDS011;8196;49.428;10.906;2022-10-31T08:32:47;9.38;;;8.20;;
16179;SDS011;8196;49.428;10.906;2022-10-31T08:35:24;8.10;;;7.30;;
16179;SDS011;8196;49.428;10.906;2022-10-31T08:37:54;7.82;;;7.13;;
16179;SDS011;8196;49.428;10.906;2022-10-31T08:40:22;8.02;;;7.22;;
16179;SDS011;8196;49.428;10.906;2022-10-31T08:45:24;8.02;;;7.22;;
16179;SDS011;8196;49.428;10.906;2022-10-31T08:47:51;7.50;;;6.63;;
16179;SDS011;8196;49.428;10.906;2022-10-31T08:50:18;8.57;;;7.68;;
16179;SDS011;8196;49.428;10.906;2022-10-31T08:52:45;8.23;;;7.43;;
16179;SDS011;8196;49.428;10.906;2022-10-31T08:55:30;9.70;;;8.38;;
16179;SDS011;8196;49.428;10.906;2022-10-31T08:57:57;9.00;;;7.70;;
16179;SDS011;8196;49.428;10.906;2022-10-31T09:00:25;7.93;;;7.22;;
16179;SDS011;8196;49.428;10.906;2022-10-31T09:03:01;8.85;;;7.80;;
16179;SDS011;8196;49.428;10.906;2022-10-31T09:05:28;8.68;;;7.88;;
16179;SDS011;8196;49.428;10.906;2022-10-31T09:07:57;8.48;;;7.57;;
16179;SDS011;8196;49.428;10.906;2022-10-31T09:10:25;9.40;;;8.23;;
16179;SDS011;8196;49.428;10.906;2022-10-31T09:12:54;9.30;;;7.90;;
16179;SDS011;8196;49.428;10.906;2022-10-31T09:15:22;9.20;;;7.80;;
16179;SDS011;8196;49.428;10.906;2022-10-31T09:17:49;9.02;;;7.47;;
16179;SDS011;8196;49.428;10.906;2022-10-31T09:20:16;8.88;;;7.82;;
16179;SDS011;8196;49.428;10.906;2022-10-31T09:22:43;7.90;;;7.10;;
16179;SDS011;8196;49.428;10.906;2022-10-31T09:25:10;8.07;;;6.82;;
16179;SDS011;8196;49.428;10.906;2022-10-31T09:27:38;9.27;;;6.72;;
16179;SDS011;8196;49.428;10.906;2022-10-31T09:30:05;8.17;;;6.53;;
16179;SDS011;8196;49.428;10.906;2022-10-31T09:32:32;8.10;;;6.18;;
16179;SDS011;8196;49.428;10.906;2022-10-31T09:34:59;8.15;;;6.13;;
16179;SDS011;8196;49.428;10.906;2022-10-31T09:37:26;7.53;;;6.30;;
16179;SDS011;8196;49.428;10.906;2022-10-31T09:39:53;7.75;;;6.00;;
16179;SDS011;8196;49.428;10.906;2022-10-31T09:44:59;7.40;;;5.80;;
16179;SDS011;8196;49.428;10.906;2022-10-31T09:50:22;10.67;;;6.43;;
16179;SDS011;8196;49.428;10.906;2022-10-31T09:52:53;7.20;;;5.95;;
16179;SDS011;8196;49.428;10.906;2022-10-31T09:55:24;9.30;;;5.57;;
16179;SDS011;8196;49.428;10.906;2022-10-31T09:57:52;6.95;;;5.90;;
16179;SDS011;8196;49.428;10.906;2022-10-31T10:00:20;7.38;;;5.75;;
16179;SDS011;8196;49.428;10.906;2022-10-31T10:02:50;6.77;;;4.87;;
16179;SDS011;8196;49.428;10.906;2022-10-31T10:05:19;6.80;;;5.55;;
16179;SDS011;8196;49.428;10.906;2022-10-31T10:07:52;7.78;;;5.18;;
16179;SDS011;8196;49.428;10.906;2022-10-31T10:10:25;7.47;;;5.80;;
16179;SDS011;8196;49.428;10.906;2022-10-31T10:15:47;9.07;;;5.93;;
16179;SDS011;8196;49.428;10.906;2022-10-31T10:21:12;6.57;;;5.38;;
16179;SDS011;8196;49.428;10.906;2022-10-31T10:23:46;6.97;;;5.32;;
16179;SDS011;8196;49.428;10.906;2022-10-31T10:26:18;8.10;;;5.68;;
16179;SDS011;8196;49.428;10.906;2022-10-31T10:28:47;5.97;;;4.72;;
16179;SDS011;8196;49.428;10.906;2022-10-31T10:31:16;6.50;;;5.10;;
16179;SDS011;8196;49.428;10.906;2022-10-31T10:33:51;7.07;;;4.50;;
16179;SDS011;8196;49.428;10.906;2022-10-31T10:36:24;6.07;;;5.00;;
16179;SDS011;8196;49.428;10.906;2022-10-31T10:38:54;6.50;;;5.25;;
16179;SDS011;8196;49.428;10.906;2022-10-31T10:41:24;5.43;;;4.93;;
16179;SDS011;8196;49.428;10.906;2022-10-31T10:43:59;7.03;;;5.43;;
16179;SDS011;8196;49.428;10.906;2022-10-31T10:46:29;5.97;;;4.68;;
16179;SDS011;8196;49.428;10.906;2022-10-31T10:52:13;7.38;;;5.20;;
16179;SDS011;8196;49.428;10.906;2022-10-31T10:55:16;7.05;;;5.38;;
16179;SDS011;8196;49.428;10.906;2022-10-31T10:58:02;6.73;;;5.50;;
16179;SDS011;8196;49.428;10.906;2022-10-31T11:00:31;7.20;;;5.32;;
16179;SDS011;8196;49.428;10.906;2022-10-31T11:02:59;9.25;;;5.63;;
16179;SDS011;8196;49.428;10.906;2022-10-31T11:08:01;6.55;;;4.97;;
16179;SDS011;8196;49.428;10.906;2022-10-31T11:10:28;9.77;;;5.82;;
16179;SDS011;8196;49.428;10.906;2022-10-31T11:12:58;10.33;;;5.70;;
16179;SDS011;8196;49.428;10.906;2022-10-31T11:15:27;8.65;;;4.70;;
16179;SDS011;8196;49.428;10.906;2022-10-31T11:17:55;6.85;;;5.05;;
16179;SDS011;8196;49.428;10.906;2022-10-31T11:20:27;7.97;;;4.97;;
16179;SDS011;8196;49.428;10.906;2022-10-31T11:23:01;8.32;;;5.50;;
16179;SDS011;8196;49.428;10.906;2022-10-31T11:25:31;7.22;;;5.00;;
16179;SDS011;8196;49.428;10.906;2022-10-31T11:28:02;9.13;;;5.70;;
16179;SDS011;8196;49.428;10.906;2022-10-31T11:30:29;7.63;;;5.47;;
16179;SDS011;8196;49.428;10.906;2022-10-31T11:32:57;8.87;;;5.53;;
16179;SDS011;8196;49.428;10.906;2022-10-31T11:35:25;7.20;;;5.28;;
16179;SDS011;8196;49.428;10.906;2022-10-31T11:37:53;6.27;;;5.00;;
16179;SDS011;8196;49.428;10.906;2022-10-31T11:40:22;6.57;;;5.25;;
16179;SDS011;8196;49.428;10.906;2022-10-31T11:42:52;8.68;;;5.22;;
16179;SDS011;8196;49.428;10.906;2022-10-31T11:47:50;7.05;;;5.05;;
16179;SDS011;8196;49.428;10.906;2022-10-31T11:50:26;7.88;;;5.18;;
16179;SDS011;8196;49.428;10.906;2022-10-31T11:52:54;8.82;;;5.15;;
16179;SDS011;8196;49.428;10.906;2022-10-31T11:55:37;9.18;;;5.55;;
16179;SDS011;8196;49.428;10.906;2022-10-31T11:58:19;8.43;;;5.45;;
16179;SDS011;8196;49.428;10.906;2022-10-31T12:00:52;10.35;;;5.63;;
16179;SDS011;8196;49.428;10.906;2022-10-31T12:06:07;8.97;;;5.53;;
16179;SDS011;8196;49.428;10.906;2022-10-31T12:08:36;8.43;;;5.40;;
16179;SDS011;8196;49.428;10.906;2022-10-31T12:16:20;11.55;;;5.95;;
16179;SDS011;8196;49.428;10.906;2022-10-31T12:18:57;7.97;;;5.20;;
16179;SDS011;8196;49.428;10.906;2022-10-31T12:26:40;10.73;;;5.28;;
16179;SDS011;8196;49.428;10.906;2022-10-31T12:31:52;7.50;;;5.10;;
16179;SDS011;8196;49.428;10.906;2022-10-31T12:37:02;11.90;;;5.87;;
16179;SDS011;8196;49.428;10.906;2022-10-31T12:39:43;8.77;;;5.65;;
16179;SDS011;8196;49.428;10.906;2022-10-31T12:45:05;8.95;;;5.25;;
16179;SDS011;8196;49.428;10.906;2022-10-31T12:52:54;7.97;;;5.32;;
16179;SDS011;8196;49.428;10.906;2022-10-31T12:58:21;8.32;;;5.47;;
16179;SDS011;8196;49.428;10.906;2022-10-31T13:00:50;7.45;;;5.25;;
16179;SDS011;8196;49.428;10.906;2022-10-31T13:05:47;8.82;;;5.20;;
16179;SDS011;8196;49.428;10.906;2022-10-31T13:08:19;8.67;;;5.47;;
16179;SDS011;8196;49.428;10.906;2022-10-31T13:10:49;6.45;;;5.20;;
16179;SDS011;8196;49.428;10.906;2022-10-31T13:15:55;9.10;;;6.47;;
16179;SDS011;8196;49.428;10.906;2022-10-31T13:18:26;7.68;;;5.32;;
16179;SDS011;8196;49.428;10.906;2022-10-31T13:20:54;8.63;;;5.75;;
16179;SDS011;8196;49.428;10.906;2022-10-31T13:23:38;9.70;;;5.88;;
16179;SDS011;8196;49.428;10.906;2022-10-31T13:26:38;10.15;;;5.80;;
16179;SDS011;8196;49.428;10.906;2022-10-31T13:31:57;8.88;;;5.65;;
16179;SDS011;8196;49.428;10.906;2022-10-31T13:34:26;8.80;;;5.82;;
16179;SDS011;8196;49.428;10.906;2022-10-31T13:36:58;10.77;;;5.88;;
16179;SDS011;8196;49.428;10.906;2022-10-31T13:39:34;7.20;;;5.70;;
16179;SDS011;8196;49.428;10.906;2022-10-31T13:42:11;6.68;;;5.85;;
16179;SDS011;8196;49.428;10.906;2022-10-31T13:44:41;11.03;;;6.10;;
16179;SDS011;8196;49.428;10.906;2022-10-31T13:50:04;7.80;;;5.30;;
16179;SDS011;8196;49.428;10.906;2022-10-31T13:52:31;8.00;;;5.38;;
16179;SDS011;8196;49.428;10.906;2022-10-31T13:54:58;7.15;;;5.57;;
16179;SDS011;8196;49.428;10.906;2022-10-31T13:57:34;8.90;;;5.63;;
16179;SDS011;8196;49.428;10.906;2022-10-31T14:00:06;8.00;;;6.00;;
16179;SDS011;8196;49.428;10.906;2022-10-31T14:02:44;11.15;;;6.05;;
16179;SDS011;8196;49.428;10.906;2022-10-31T14:08:03;8.02;;;5.85;;
16179;SDS011;8196;49.428;10.906;2022-10-31T14:10:32;9.25;;;5.68;;
16179;SDS011;8196;49.428;10.906;2022-10-31T14:13:04;9.07;;;6.00;;
16179;SDS011;8196;49.428;10.906;2022-10-31T14:15:31;7.07;;;5.18;;
16179;SDS011;8196;49.428;10.906;2022-10-31T14:22:54;11.53;;;5.87;;
16179;SDS011;8196;49.428;10.906;2022-10-31T14:25:36;6.97;;;5.30;;
16179;SDS011;8196;49.428;10.906;2022-10-31T14:28:20;7.38;;;5.15;;
16179;SDS011;8196;49.428;10.906;2022-10-31T14:33:22;8.10;;;5.68;;
16179;SDS011;8196;49.428;10.906;2022-10-31T14:35:51;7.28;;;5.25;;
16179;SDS011;8196;49.428;10.906;2022-10-31T14:41:08;8.80;;;5.82;;
16179;SDS011;8196;49.428;10.906;2022-10-31T14:46:32;7.68;;;5.70;;
16179;SDS011;8196;49.428;10.906;2022-10-31T14:51:33;7.97;;;5.93;;
16179;SDS011;8196;49.428;10.906;2022-10-31T14:54:01;8.20;;;6.05;;
16179;SDS011;8196;49.428;10.906;2022-10-31T14:56:29;8.15;;;6.45;;
16179;SDS011;8196;49.428;10.906;2022-10-31T14:58:58;8.53;;;6.20;;
16179;SDS011;8196;49.428;10.906;2022-10-31T15:01:35;7.72;;;6.10;;
16179;SDS011;8196;49.428;10.906;2022-10-31T15:04:20;10.10;;;7.27;;
16179;SDS011;8196;49.428;10.906;2022-10-31T15:06:53;8.73;;;6.28;;
16179;SDS011;8196;49.428;10.906;2022-10-31T15:11:48;8.65;;;5.90;;
16179;SDS011;8196;49.428;10.906;2022-10-31T15:14:20;7.47;;;5.78;;
16179;SDS011;8196;49.428;10.906;2022-10-31T15:16:48;7.05;;;5.40;;
16179;SDS011;8196;49.428;10.906;2022-10-31T15:19:16;8.20;;;6.43;;
16179;SDS011;8196;49.428;10.906;2022-10-31T15:21:47;11.60;;;7.13;;
16179;SDS011;8196;49.428;10.906;2022-10-31T15:24:14;8.40;;;6.43;;
16179;SDS011;8196;49.428;10.906;2022-10-31T15:26:45;10.40;;;6.55;;
16179;SDS011;8196;49.428;10.906;2022-10-31T15:29:15;10.50;;;6.25;;
16179;SDS011;8196;49.428;10.906;2022-10-31T15:31:59;9.02;;;7.20;;
16179;SDS011;8196;49.428;10.906;2022-10-31T15:34:30;10.60;;;7.57;;
16179;SDS011;8196;49.428;10.906;2022-10-31T15:37:00;9.40;;;6.97;;
16179;SDS011;8196;49.428;10.906;2022-10-31T15:39:27;13.50;;;6.50;;
16179;SDS011;8196;49.428;10.906;2022-10-31T15:41:56;11.15;;;6.20;;
16179;SDS011;8196;49.428;10.906;2022-10-31T15:44:24;8.95;;;6.45;;
16179;SDS011;8196;49.428;10.906;2022-10-31T15:46:53;6.60;;;5.55;;
16179;SDS011;8196;49.428;10.906;2022-10-31T15:49:26;8.50;;;5.30;;
16179;SDS011;8196;49.428;10.906;2022-10-31T15:51:54;8.20;;;5.90;;
16179;SDS011;8196;49.428;10.906;2022-10-31T15:54:21;6.47;;;4.95;;
16179;SDS011;8196;49.428;10.906;2022-10-31T15:56:48;9.00;;;5.30;;
16179;SDS011;8196;49.428;10.906;2022-10-31T15:59:18;8.20;;;5.23;;
16179;SDS011;8196;49.428;10.906;2022-10-31T16:01:55;8.40;;;5.60;;
16179;SDS011;8196;49.428;10.906;2022-10-31T16:04:28;7.13;;;5.13;;
16179;SDS011;8196;49.428;10.906;2022-10-31T16:06:59;8.07;;;5.10;;
16179;SDS011;8196;49.428;10.906;2022-10-31T16:09:27;8.70;;;5.10;;
16179;SDS011;8196;49.428;10.906;2022-10-31T16:11:55;7.75;;;4.68;;
16179;SDS011;8196;49.428;10.906;2022-10-31T16:14:24;7.00;;;5.60;;
16179;SDS011;8196;49.428;10.906;2022-10-31T16:16:53;10.32;;;6.00;;
16179;SDS011;8196;49.428;10.906;2022-10-31T16:21:52;10.30;;;6.80;;
16179;SDS011;8196;49.428;10.906;2022-10-31T16:24:22;9.67;;;7.50;;
16179;SDS011;8196;49.428;10.906;2022-10-31T16:26:51;10.00;;;7.63;;
16179;SDS011;8196;49.428;10.906;2022-10-31T16:29:27;8.80;;;6.33;;
16179;SDS011;8196;49.428;10.906;2022-10-31T16:31:55;8.90;;;5.93;;
16179;SDS011;8196;49.428;10.906;2022-10-31T16:34:22;8.82;;;6.18;;
16179;SDS011;8196;49.428;10.906;2022-10-31T16:36:52;8.52;;;6.00;;
16179;SDS011;8196;49.428;10.906;2022-10-31T16:39:19;6.87;;;5.60;;
16179;SDS011;8196;49.428;10.906;2022-10-31T16:41:47;8.83;;;5.70;;
16179;SDS011;8196;49.428;10.906;2022-10-31T16:44:18;8.30;;;5.82;;
16179;SDS011;8196;49.428;10.906;2022-10-31T16:46:46;7.18;;;5.38;;
16179;SDS011;8196;49.428;10.906;2022-10-31T16:49:13;6.95;;;5.43;;
16179;SDS011;8196;49.428;10.906;2022-10-31T16:51:41;9.48;;;6.93;;
16179;SDS011;8196;49.428;10.906;2022-10-31T16:54:09;12.90;;;6.70;;